Brusett, MT

5:45 PM MST on December 21, 2014 (GMT -0700)
Union Creek | Change Station
CLOSE
Current Station
Personal Weather Station
Location: Montana, MT
Elevation: 2910 ft
Nearby Weather Stations

Elev 2910 ft 47.26 °N, 107.56 °W | Updated 9 minutes ago

Mostly Cloudy
Mostly Cloudy
40.0 °F
Feels Like 32 °F
N
15.0
Wind Variable Wind from WNW
Gusts 18.0 mph

Today
High -- | Low -- °F
--% Chance of Precip.
Yesterday
High -- | Low -- °F
Precip. -- in
7:54 AM 4:22 PM
Waning Crescent, 0% visible
Pressure 29.44 in
Visibility 10.0 miles
Clouds Scattered Clouds 7000 ft
Mostly Cloudy 8500 ft
Windchill 32 °F
Dew Point 35 °F
Humidity 81%
Rainfall 0.03 in
Snow Depth Not available.
UV 0 out of 12
Pollen .10 out of 12
Air Quality Not available.
Flu Activity Not available.
METAR KGGW 212353Z AUTO 24004KT 10SM SCT070 BKN085 00/M01 A2936 RMK AO2 SLP970 60005 T00001011 10006 21006 53020

More Conditions Fewer Conditions

Pressure 29.44 in
Visibility 10.0 miles
Clouds Scattered Clouds 7000 ft
Mostly Cloudy 8500 ft
Windchill 32 °F
Dew Point 35 °F
Humidity 81%
Rainfall 0.03 in
Snow Depth Not available.
UV 0 out of 12
Pollen .10 out of 12
Air Quality Not available.
Flu Activity Not available.
METAR KGGW 212353Z AUTO 24004KT 10SM SCT070 BKN085 00/M01 A2936 RMK AO2 SLP970 60005 T00001011 10006 21006 53020

More Conditions Fewer Conditions

10-Day Weather Forecast

Almanac

Astronomy

Dec. 21, 2014 Rise Set
Actual Time
Civil Twilight
Nautical Twilight
Astronomical Twilight
Moon
Length of Visible Light
Length of Day
Tomorrow will be .
, % of the Moon is Illuminated

Today's Extremes

State Highs State Lows

Community

WunderPhotos

Upload Photos

1,779,509 photos uploaded!

WunderBlogs® & News

Nearby

Air Quality

  Air Quality AQ Index Pollutant
Not available.

Snow Depth

Station Depth Elevation

Earthquake Activity

City Distance Mag. Time & Date
Minimum magnitude displayed is 2.5.

Coastal Water Temperatures

Place Temperature

Nearby Weather Stations